Time;durP1;ratioP1;P1;durP2;ratioP2;P2;SDS_P1;SDS_P2;PMS_P1;PMS_P2;Temp;Humidity;BMP_temperature;BMP_pressure;BME280_temperature;BME280_humidity;BME280_pressure;Samples;Min_cycle;Max_cycle;Signal;HPM_P1;HPM_P2
2022/06/03 00:00:18;;;;;;;0.50;0.50;;;10.20;99.90;;;;;;4998832;28;20038;-71
2022/06/03 00:02:53;;;;;;;0.60;0.60;;;10.20;99.90;;;;;;4968216;28;20073;-71
2022/06/03 00:05:36;;;;;;;0.57;0.57;;;10.10;99.90;;;;;;4962779;28;20066;-71
2022/06/03 00:08:21;;;;;;;0.52;0.52;;;10.10;99.90;;;;;;4962509;28;20051;-71
2022/06/03 00:11:08;;;;;;;0.60;0.60;;;10.10;99.90;;;;;;4961955;28;20062;-71
2022/06/03 00:13:55;;;;;;;0.40;0.40;;;10.00;99.90;;;;;;4961808;28;20051;-71
2022/06/03 00:16:35;;;;;;;0.40;0.40;;;9.90;99.90;;;;;;4979469;28;20341;-71
2022/06/03 00:19:19;;;;;;;0.55;0.55;;;9.90;99.90;;;;;;4978965;28;20054;-71
2022/06/03 00:22:02;;;;;;;0.40;0.40;;;9.90;99.90;;;;;;4976694;28;20051;-71
2022/06/03 00:24:34;;;;;;;1.23;0.95;;;9.80;99.90;;;;;;4945854;28;20051;-71
2022/06/03 00:27:15;;;;;;;0.60;0.60;;;9.80;99.90;;;;;;4978842;28;20452;-71
2022/06/03 00:29:59;;;;;;;0.40;0.40;;;9.70;99.90;;;;;;4978687;28;20460;-71
2022/06/03 00:32:53;;;;;;;0.40;0.40;;;9.80;99.90;;;;;;4971953;28;20477;-71
2022/06/03 00:35:27;;;;;;;0.40;0.40;;;9.70;99.90;;;;;;4981417;28;20062;-71
2022/06/03 00:37:56;;;;;;;;;;;9.70;99.90;;;;;;4998804;28;20390;-71
2022/06/03 00:40:40;;;;;;;0.40;0.40;;;9.60;99.90;;;;;;4981289;28;19981;-71
2022/06/03 00:43:24;;;;;;;0.50;0.50;;;9.60;99.90;;;;;;4982702;28;20053;-71
2022/06/03 00:45:59;;;;;;;0.40;0.40;;;9.50;99.90;;;;;;4978787;28;20129;-71
2022/06/03 00:48:46;;;;;;;0.50;0.50;;;9.50;99.90;;;;;;4961968;28;20058;-71
2022/06/03 00:51:30;;;;;;;0.50;0.50;;;9.50;99.90;;;;;;4961472;28;20113;-72
2022/06/03 00:54:11;;;;;;;1.40;1.15;;;9.50;99.90;;;;;;4981080;28;20050;-71
2022/06/03 00:56:51;;;;;;;0.50;0.50;;;9.40;99.90;;;;;;4981161;28;20082;-71
2022/06/03 00:59:38;;;;;;;0.40;0.40;;;9.40;99.90;;;;;;4980635;28;20117;-71
2022/06/03 01:02:30;;;;;;;0.50;0.50;;;9.40;99.90;;;;;;4973623;28;20061;-71
2022/06/03 01:05:03;;;;;;;0.40;0.40;;;9.30;99.90;;;;;;4977247;28;20130;-71
2022/06/03 01:08:24;;;;;;;0.57;0.57;;;9.30;99.90;;;;;;4997549;28;20494;-72
2022/06/03 01:11:11;;;;;;;0.50;0.50;;;9.30;99.90;;;;;;4921360;29;20063;-71
2022/06/03 01:13:48;;;;;;;0.40;0.40;;;9.30;99.90;;;;;;4903616;29;20440;-71
2022/06/03 01:16:51;;;;;;;0.50;0.50;;;9.30;99.90;;;;;;4959694;28;20098;-71
2022/06/03 01:19:28;;;;;;;0.40;0.40;;;9.30;99.90;;;;;;4977604;28;20411;-71
2022/06/03 01:22:10;;;;;;;0.50;0.50;;;9.30;99.90;;;;;;4964963;28;20518;-70
2022/06/03 01:24:59;;;;;;;0.60;0.60;;;9.30;99.90;;;;;;4980893;28;20050;-71
2022/06/03 01:27:41;;;;;;;0.60;0.60;;;9.20;99.90;;;;;;4979983;28;20050;-71
2022/06/03 01:30:13;;;;;;;0.93;0.60;;;9.20;99.90;;;;;;4980911;28;20137;-71
2022/06/03 01:32:38;;;;;;;0.50;0.50;;;9.20;99.90;;;;;;4986998;28;20463;-71
2022/06/03 01:35:48;;;;;;;0.50;0.50;;;9.20;99.90;;;;;;4960537;28;20091;-71
2022/06/03 01:38:51;;;;;;;0.70;0.70;;;9.20;99.90;;;;;;4977669;28;20066;-71
2022/06/03 01:41:27;;;;;;;0.40;0.40;;;9.20;99.90;;;;;;4960627;28;20050;-71
2022/06/03 01:43:59;;;;;;;2.15;1.05;;;9.10;99.90;;;;;;4970236;28;20447;-71
2022/06/03 01:46:32;;;;;;;2.25;1.02;;;9.10;99.90;;;;;;4960250;28;20055;-71
2022/06/03 01:49:10;;;;;;;0.40;0.40;;;9.00;99.90;;;;;;4960398;28;20133;-71
2022/06/03 01:52:05;;;;;;;0.40;0.40;;;9.00;99.90;;;;;;4961338;28;20086;-71
2022/06/03 01:55:08;;;;;;;0.55;0.55;;;9.00;99.90;;;;;;4979543;28;20046;-71
2022/06/03 01:57:51;;;;;;;0.85;0.63;;;8.90;99.90;;;;;;4994978;28;20057;-71
2022/06/03 02:00:30;;;;;;;0.80;0.80;;;8.90;99.90;;;;;;4996834;28;20046;-71
2022/06/03 02:03:20;;;;;;;2.15;0.70;;;8.90;99.90;;;;;;4984663;28;20042;-71
2022/06/03 02:06:11;;;;;;;0.50;0.50;;;8.90;99.90;;;;;;4960322;28;20187;-71
2022/06/03 02:08:54;;;;;;;0.45;0.45;;;8.90;99.90;;;;;;4977199;28;20101;-71
2022/06/03 02:11:34;;;;;;;0.60;0.60;;;8.90;99.90;;;;;;4959847;28;20046;-71
2022/06/03 02:14:25;;;;;;;0.47;0.47;;;8.90;99.90;;;;;;4977220;28;20065;-71
2022/06/03 02:17:19;;;;;;;0.50;0.50;;;8.90;99.90;;;;;;4944135;28;20452;-71
2022/06/03 02:20:16;;;;;;;1.15;0.88;;;8.90;99.90;;;;;;4959914;28;20192;-72
2022/06/03 02:23:15;;;;;;;0.40;0.40;;;8.90;99.90;;;;;;4960065;28;20054;-71
2022/06/03 02:25:59;;;;;;;0.40;0.40;;;8.80;99.90;;;;;;4995132;28;20056;-71
2022/06/03 02:31:51;;;;;;;0.52;0.52;;;8.80;99.90;;;;;;4976825;28;20046;-71
2022/06/03 02:34:42;;;;;;;7.32;0.90;;;8.80;99.90;;;;;;4959643;28;20383;-71
2022/06/03 02:37:38;;;;;;;0.50;0.50;;;8.70;99.90;;;;;;4959694;28;20480;-71
2022/06/03 02:40:30;;;;;;;0.40;0.40;;;8.60;99.90;;;;;;4976600;28;20051;-71
2022/06/03 02:43:14;;;;;;;0.50;0.50;;;8.70;99.90;;;;;;4953983;28;20351;-71
2022/06/03 02:46:06;;;;;;;0.57;0.57;;;8.70;99.90;;;;;;4996332;28;20399;-71
2022/06/03 02:49:12;;;;;;;0.75;0.75;;;8.70;99.90;;;;;;4979231;28;20430;-71
2022/06/03 02:52:04;;;;;;;1.48;1.15;;;8.70;99.90;;;;;;4978289;28;20466;-71
2022/06/03 02:54:50;;;;;;;0.40;0.40;;;8.70;99.90;;;;;;4976285;28;20055;-71
2022/06/03 02:57:31;;;;;;;0.70;0.70;;;8.70;99.90;;;;;;4976303;28;20469;-71
2022/06/03 03:00:26;;;;;;;0.40;0.40;;;8.70;99.90;;;;;;4976138;28;20047;-71
2022/06/03 03:03:04;;;;;;;1.80;0.98;;;8.70;99.90;;;;;;4968885;28;20462;-71
2022/06/03 03:05:33;;;;;;;0.75;0.75;;;8.70;99.90;;;;;;4945136;28;20098;-72
2022/06/03 03:08:27;;;;;;;0.47;0.47;;;8.80;99.90;;;;;;4978916;28;20062;-71
2022/06/03 03:11:13;;;;;;;0.52;0.52;;;8.60;99.90;;;;;;4995598;28;20054;-71
2022/06/03 03:14:04;;;;;;;0.50;0.50;;;8.60;99.90;;;;;;4961980;28;20051;-71
2022/06/03 03:16:45;;;;;;;0.50;0.50;;;8.50;99.90;;;;;;4975990;28;20050;-71
2022/06/03 03:19:35;;;;;;;0.40;0.40;;;8.60;99.90;;;;;;4975938;28;20058;-71
2022/06/03 03:22:10;;;;;;;0.50;0.50;;;8.50;99.90;;;;;;4961805;28;20497;-71
2022/06/03 03:25:16;;;;;;;0.40;0.40;;;8.80;99.90;;;;;;4978665;28;20140;-71
2022/06/03 03:27:44;;;;;;;0.50;0.50;;;8.60;99.90;;;;;;4977956;28;20054;-71
2022/06/03 03:30:18;;;;;;;1.05;0.95;;;8.60;99.90;;;;;;4978740;28;20148;-70
2022/06/03 03:33:09;;;;;;;0.52;0.52;;;8.70;99.90;;;;;;4988343;28;20057;-71
2022/06/03 03:35:59;;;;;;;0.40;0.40;;;8.70;99.90;;;;;;4962453;28;20051;-71
2022/06/03 03:39:03;;;;;;;0.43;0.43;;;8.70;99.90;;;;;;4962755;28;20073;-71
2022/06/03 03:41:36;;;;;;;0.57;0.57;;;8.70;99.90;;;;;;4980118;28;20050;-71
2022/06/03 03:44:20;;;;;;;;;;;8.70;99.90;;;;;;4991454;28;20042;-71
2022/06/03 03:47:27;;;;;;;0.50;0.50;;;8.80;99.90;;;;;;4980069;28;19922;-71
2022/06/03 03:50:04;;;;;;;0.43;0.43;;;8.80;99.90;;;;;;4936925;28;20051;-71
2022/06/03 03:53:14;;;;;;;0.50;0.50;;;8.90;99.90;;;;;;4970570;28;20090;-71
2022/06/03 03:55:59;;;;;;;0.50;0.50;;;9.00;99.90;;;;;;4986818;28;20089;-72
2022/06/03 03:58:46;;;;;;;0.50;0.50;;;9.10;99.90;;;;;;4951826;28;20129;-70
2022/06/03 04:01:27;;;;;;;1.35;1.05;;;9.30;99.90;;;;;;4968770;28;20446;-71
2022/06/03 04:04:15;;;;;;;1.08;0.98;;;9.40;99.90;;;;;;5018226;28;20133;-71
2022/06/03 04:07:16;;;;;;;0.40;0.40;;;9.50;99.90;;;;;;5000768;28;20050;-71
2022/06/03 04:10:11;;;;;;;0.82;0.80;;;9.70;99.90;;;;;;4984758;28;20061;-71
2022/06/03 04:13:09;;;;;;;0.95;0.90;;;9.80;99.90;;;;;;4999031;28;20054;-71
2022/06/03 04:16:01;;;;;;;0.82;0.82;;;9.90;99.90;;;;;;4998442;28;20540;-71
2022/06/03 04:18:56;;;;;;;0.60;0.60;;;10.00;99.90;;;;;;4990747;28;20486;-71
2022/06/03 04:21:53;;;;;;;1.73;0.80;;;10.10;99.90;;;;;;4962248;28;20112;-71
2022/06/03 04:24:40;;;;;;;0.65;0.65;;;10.20;99.90;;;;;;4962578;28;20129;-71
2022/06/03 04:27:15;;;;;;;0.73;0.73;;;10.30;99.90;;;;;;4961829;28;20051;-70
2022/06/03 04:30:05;;;;;;;0.50;0.50;;;10.30;99.90;;;;;;4978115;28;20463;-71
2022/06/03 04:33:01;;;;;;;0.93;0.90;;;10.30;99.90;;;;;;4998507;28;20061;-71
2022/06/03 04:36:14;;;;;;;0.77;0.77;;;10.40;99.90;;;;;;4981301;28;20368;-71
2022/06/03 04:39:14;;;;;;;0.40;0.40;;;10.30;99.90;;;;;;4946440;28;20059;-71
2022/06/03 04:42:19;;;;;;;0.70;0.70;;;10.30;99.90;;;;;;4961445;28;20117;-71
2022/06/03 04:45:12;;;;;;;0.40;0.40;;;10.50;99.90;;;;;;4977765;28;20043;-71
2022/06/03 04:48:11;;;;;;;0.50;0.50;;;10.50;99.90;;;;;;4961651;28;20061;-71
2022/06/03 04:51:08;;;;;;;0.40;0.40;;;10.50;99.90;;;;;;4961818;28;20108;-71
2022/06/03 04:54:11;;;;;;;0.50;0.50;;;10.60;99.90;;;;;;4961558;28;20137;-71
2022/06/03 04:57:30;;;;;;;0.50;0.50;;;10.50;99.90;;;;;;4978831;28;20056;-71
2022/06/03 05:00:34;;;;;;;1.48;1.38;;;10.50;99.90;;;;;;4901749;29;20339;-71
2022/06/03 05:03:27;;;;;;;0.40;0.40;;;10.60;99.90;;;;;;4919539;29;20185;-71
2022/06/03 05:06:30;;;;;;;0.95;0.95;;;10.60;99.90;;;;;;4975537;28;20133;-71
2022/06/03 05:09:23;;;;;;;0.70;0.70;;;10.70;99.90;;;;;;4988398;28;20456;-71
2022/06/03 05:12:31;;;;;;;0.60;0.60;;;10.80;99.90;;;;;;4961195;28;20065;-71
2022/06/03 05:15:18;;;;;;;0.50;0.50;;;11.80;99.90;;;;;;4978153;28;20097;-72
2022/06/03 05:18:02;;;;;;;0.50;0.50;;;13.80;99.90;;;;;;4961143;28;20138;-71
2022/06/03 05:20:54;;;;;;;2.08;1.10;;;15.30;99.90;;;;;;4977998;28;20046;-72
2022/06/03 05:23:32;;;;;;;0.88;0.75;;;16.70;99.90;;;;;;4960919;28;20053;-71
2022/06/03 05:26:42;;;;;;;0.55;0.55;;;17.70;99.90;;;;;;4977613;28;20481;-72
2022/06/03 05:29:26;;;;;;;0.45;0.45;;;18.60;99.90;;;;;;4960567;28;20385;-71
2022/06/03 05:32:36;;;;;;;0.50;0.50;;;18.90;99.90;;;;;;4961296;28;20058;-71
2022/06/03 05:35:23;;;;;;;0.30;0.30;;;19.60;99.90;;;;;;4977864;28;20043;-72
2022/06/03 05:38:02;;;;;;;0.93;0.60;;;20.10;99.90;;;;;;4960284;28;20047;-70
2022/06/03 05:41:02;;;;;;;0.50;0.50;;;20.20;99.90;;;;;;4980387;28;20348;-69
2022/06/03 05:44:14;;;;;;;4.97;1.08;;;20.50;99.90;;;;;;4972173;28;20148;-69
2022/06/03 05:46:54;;;;;;;0.68;0.68;;;20.50;99.90;;;;;;4973778;28;20059;-69
2022/06/03 05:49:38;;;;;;;11.50;2.92;;;20.30;99.90;;;;;;4984526;28;20050;-69
2022/06/03 05:52:24;;;;;;;0.30;0.30;;;21.10;99.50;;;;;;4981132;28;20061;-70
2022/06/03 05:55:22;;;;;;;0.30;0.30;;;21.50;99.80;;;;;;4994374;28;20086;-69
2022/06/03 05:58:14;;;;;;;1.88;0.75;;;21.70;97.80;;;;;;4935008;28;20065;-69
2022/06/03 06:01:00;;;;;;;0.80;0.60;;;21.80;98.80;;;;;;4978759;28;20458;-70
2022/06/03 06:03:39;;;;;;;0.35;0.35;;;22.20;99.00;;;;;;4979101;28;20057;-70
2022/06/03 06:06:20;;;;;;;0.30;0.30;;;22.50;96.30;;;;;;4979440;28;20050;-69
2022/06/03 06:09:00;;;;;;;2.00;0.40;;;22.50;96.10;;;;;;4978613;28;20053;-68
2022/06/03 06:11:25;;;;;;;0.28;0.28;;;22.50;96.30;;;;;;4979451;28;20475;-69
2022/06/03 06:14:03;;;;;;;0.38;0.38;;;22.60;96.30;;;;;;4996326;28;20046;-69
2022/06/03 06:16:37;;;;;;;0.38;0.32;;;23.10;94.90;;;;;;4995983;28;20046;-69
2022/06/03 06:19:28;;;;;;;0.20;0.20;;;22.80;94.00;;;;;;4950810;29;20047;-69
2022/06/03 06:22:03;;;;;;;0.47;0.30;;;23.10;95.50;;;;;;4940225;29;20069;-68
2022/06/03 06:24:34;;;;;;;0.20;0.20;;;23.60;93.40;;;;;;4933567;28;20058;-70
2022/06/03 06:27:06;;;;;;;1.00;0.35;;;23.70;94.70;;;;;;4958954;28;20047;-69
2022/06/03 06:29:53;;;;;;;0.38;0.28;;;23.70;94.40;;;;;;4963468;28;20051;-69
2022/06/03 06:32:50;;;;;;;0.20;0.20;;;24.30;91.70;;;;;;4939658;29;20047;-70
2022/06/03 06:35:44;;;;;;;0.10;0.10;;;24.40;92.30;;;;;;4940160;29;20073;-68
2022/06/03 06:38:27;;;;;;;0.25;0.25;;;24.30;91.60;;;;;;4957583;28;20122;-69
2022/06/03 06:41:19;;;;;;;0.20;0.20;;;24.80;90.30;;;;;;4974358;28;20054;-70
2022/06/03 06:43:56;;;;;;;0.10;0.10;;;24.30;83.20;;;;;;4958686;28;20051;-69
2022/06/03 06:46:44;;;;;;;0.22;0.22;;;24.30;82.60;;;;;;4976117;28;20183;-69
2022/06/03 06:49:43;;;;;;;0.20;0.20;;;24.10;81.00;;;;;;4948998;29;20118;-70
2022/06/03 06:52:31;;;;;;;0.30;0.30;;;23.60;82.40;;;;;;4939549;29;20079;-70
2022/06/03 06:55:11;;;;;;;0.20;0.20;;;23.60;80.30;;;;;;4956176;29;20065;-69
2022/06/03 06:57:47;;;;;;;0.20;0.20;;;23.80;79.00;;;;;;4939468;29;20062;-69
2022/06/03 07:00:25;;;;;;;0.20;0.20;;;23.90;80.10;;;;;;4955317;28;20046;-70
2022/06/03 07:03:08;;;;;;;0.52;0.30;;;23.80;78.60;;;;;;4958790;28;20367;-70
2022/06/03 07:05:39;;;;;;;0.20;0.20;;;23.80;78.70;;;;;;4958378;28;20508;-70
2022/06/03 07:08:12;;;;;;;0.20;0.20;;;24.00;79.60;;;;;;4974913;28;20046;-69
2022/06/03 07:10:59;;;;;;;0.10;0.10;;;23.80;77.00;;;;;;4939339;29;20062;-70
2022/06/03 07:13:48;;;;;;;0.28;0.28;;;23.50;77.90;;;;;;4958007;28;20077;-69
2022/06/03 07:19:52;;;;;;;0.22;0.22;;;24.50;77.80;;;;;;4977404;28;20054;-69
2022/06/03 07:22:36;;;;;;;0.95;0.52;;;24.20;77.10;;;;;;4977914;28;20058;-69
2022/06/03 07:25:11;;;;;;;0.40;0.40;;;24.30;77.50;;;;;;4978856;28;20120;-70
2022/06/03 07:27:43;;;;;;;0.20;0.20;;;24.80;78.00;;;;;;4977896;28;20150;-69
2022/06/03 07:30:17;;;;;;;0.38;0.25;;;24.80;74.60;;;;;;4962255;28;20058;-69
2022/06/03 07:33:06;;;;;;;0.17;0.17;;;25.20;75.10;;;;;;4975855;28;20043;-69
2022/06/03 07:35:57;;;;;;;0.10;0.10;;;25.30;75.70;;;;;;4964188;28;20063;-69
2022/06/03 07:38:34;;;;;;;1.17;0.20;;;25.20;75.30;;;;;;4976778;28;20058;-69
2022/06/03 07:41:11;;;;;;;1.95;0.68;;;25.40;73.40;;;;;;4995076;28;20061;-69
2022/06/03 07:43:40;;;;;;;0.20;0.20;;;24.60;72.80;;;;;;4977954;28;20482;-69
2022/06/03 07:46:17;;;;;;;0.45;0.25;;;23.90;73.10;;;;;;4995193;28;20121;-69
2022/06/03 07:48:43;;;;;;;0.30;0.25;;;24.30;72.70;;;;;;4977510;28;20053;-69
2022/06/03 07:51:15;;;;;;;0.10;0.10;;;24.70;72.40;;;;;;4977505;28;20050;-70
2022/06/03 07:54:02;;;;;;;0.10;0.10;;;24.80;75.30;;;;;;4977850;28;20447;-69
2022/06/03 07:56:30;;;;;;;0.20;0.20;;;24.80;74.90;;;;;;4995548;28;20057;-69
2022/06/03 07:59:01;;;;;;;0.32;0.32;;;24.50;74.40;;;;;;4972172;28;20141;-69
2022/06/03 08:01:28;;;;;;;0.20;0.20;;;24.90;77.90;;;;;;4970725;28;20038;-70
2022/06/03 08:03:54;;;;;;;0.20;0.20;;;25.20;75.90;;;;;;4977887;28;20062;-69
2022/06/03 08:12:24;;;;;;;0.20;0.20;;;25.30;74.30;;;;;;4975747;28;20130;-70
2022/06/03 08:14:50;;;;;;;0.63;0.63;;;25.30;75.20;;;;;;4975198;28;20122;-69
2022/06/03 08:17:17;;;;;;;0.20;0.20;;;25.70;76.70;;;;;;4975230;28;20152;-69
2022/06/03 08:19:43;;;;;;;0.35;0.35;;;25.90;73.30;;;;;;4989225;28;20046;-69
2022/06/03 08:22:13;;;;;;;0.17;0.17;;;25.60;75.70;;;;;;4981391;28;20050;-69
2022/06/03 08:24:41;;;;;;;0.17;0.17;;;25.70;73.30;;;;;;4981297;28;20109;-69
2022/06/03 08:27:13;;;;;;;0.73;0.40;;;25.50;72.10;;;;;;4998157;28;20046;-70
2022/06/03 08:29:43;;;;;;;0.20;0.13;;;25.30;72.20;;;;;;4971206;28;20090;-70
2022/06/03 08:32:16;;;;;;;0.15;0.15;;;25.00;72.40;;;;;;4978779;28;20061;-69
2022/06/03 08:34:49;;;;;;;0.40;0.40;;;25.00;73.90;;;;;;4962463;28;20047;-69
2022/06/03 08:37:23;;;;;;;0.10;0.10;;;24.70;72.00;;;;;;4978958;28;20564;-70
2022/06/03 08:39:52;;;;;;;0.10;0.10;;;25.00;74.70;;;;;;4972192;28;20133;-70
2022/06/03 08:42:22;;;;;;;0.20;0.20;;;24.70;72.60;;;;;;4980900;28;20513;-70
2022/06/03 08:45:12;;;;;;;0.10;0.10;;;24.40;73.80;;;;;;4981349;28;20046;-69
2022/06/03 08:47:41;;;;;;;2.05;0.40;;;24.50;73.50;;;;;;4981141;28;20515;-69
2022/06/03 08:50:21;;;;;;;0.10;0.10;;;24.00;75.70;;;;;;4993282;28;20046;-69
2022/06/03 08:53:00;;;;;;;0.80;0.80;;;24.20;76.90;;;;;;4980941;28;20129;-69
2022/06/03 08:55:38;;;;;;;0.63;0.28;;;24.60;73.90;;;;;;4981065;28;20485;-69
2022/06/03 08:58:32;;;;;;;0.10;0.10;;;24.40;74.20;;;;;;4974131;28;20087;-69
2022/06/03 09:01:34;;;;;;;0.52;0.52;;;24.70;74.10;;;;;;4977369;28;20050;-70
2022/06/03 09:04:12;;;;;;;0.20;0.20;;;25.00;77.90;;;;;;4961073;28;20371;-70
2022/06/03 09:07:16;;;;;;;0.20;0.20;;;25.00;74.10;;;;;;4961303;28;20059;-70
2022/06/03 09:09:52;;;;;;;0.10;0.10;;;25.00;74.80;;;;;;4967325;28;20060;-70
2022/06/03 09:12:33;;;;;;;0.93;0.85;;;24.70;74.10;;;;;;4961095;28;20066;-70
2022/06/03 09:15:05;;;;;;;0.10;0.10;;;24.40;77.30;;;;;;4977846;28;20091;-69
2022/06/03 09:17:37;;;;;;;0.20;0.20;;;24.40;78.00;;;;;;4961627;28;20063;-69
2022/06/03 09:20:13;;;;;;;0.67;0.63;;;24.00;76.80;;;;;;4980015;28;20046;-68
2022/06/03 09:22:39;;;;;;;0.10;0.10;;;24.00;75.40;;;;;;4980312;28;20444;-68
2022/06/03 09:25:10;;;;;;;0.10;0.10;;;23.90;77.00;;;;;;4980646;28;20465;-68
2022/06/03 09:27:36;;;;;;;0.30;0.30;;;23.40;76.80;;;;;;4962023;28;20104;-68
2022/06/03 09:30:06;;;;;;;0.20;0.20;;;23.40;79.70;;;;;;4977006;28;20047;-68
2022/06/03 09:32:38;;;;;;;0.17;0.17;;;23.30;79.70;;;;;;4961230;28;20042;-68
2022/06/03 09:35:11;;;;;;;0.20;0.20;;;23.20;80.30;;;;;;4960559;28;20108;-68
2022/06/03 09:37:43;;;;;;;0.28;0.28;;;23.20;77.90;;;;;;4979088;28;20348;-68
2022/06/03 09:40:16;;;;;;;0.30;0.30;;;23.10;77.90;;;;;;4979524;28;20081;-69
2022/06/03 09:43:06;;;;;;;0.40;0.40;;;22.70;80.10;;;;;;4997063;28;20274;-68
2022/06/03 09:45:34;;;;;;;1.27;1.17;;;22.50;77.80;;;;;;4977090;28;20463;-68
2022/06/03 09:48:04;;;;;;;0.35;0.25;;;22.60;77.30;;;;;;4974847;28;20051;-68
2022/06/03 09:50:31;;;;;;;0.38;0.30;;;22.80;80.70;;;;;;4977311;28;20039;-69
2022/06/03 09:53:06;;;;;;;0.95;0.47;;;22.70;79.50;;;;;;4944547;28;20101;-68
2022/06/03 09:55:43;;;;;;;0.20;0.20;;;22.50;77.80;;;;;;4959812;28;20043;-68
2022/06/03 09:58:15;;;;;;;0.40;0.40;;;22.30;77.80;;;;;;4960631;28;20047;-69
2022/06/03 10:00:49;;;;;;;0.28;0.28;;;22.40;79.30;;;;;;4959759;28;20054;-68
2022/06/03 10:03:16;;;;;;;0.20;0.20;;;22.80;82.10;;;;;;4960896;28;20460;-69
2022/06/03 10:05:50;;;;;;;0.25;0.25;;;23.20;81.30;;;;;;4977150;28;20145;-69
2022/06/03 10:08:19;;;;;;;0.73;0.50;;;23.20;80.00;;;;;;4964959;28;20050;-69
2022/06/03 10:13:32;;;;;;;0.20;0.20;;;23.40;77.60;;;;;;4979028;28;20050;-69
2022/06/03 10:16:00;;;;;;;0.40;0.40;;;23.40;79.70;;;;;;4979110;28;20132;-68
2022/06/03 10:18:42;;;;;;;0.45;0.45;;;23.50;79.80;;;;;;4972258;28;20051;-69
2022/06/03 10:21:08;;;;;;;0.30;0.30;;;23.50;78.90;;;;;;4976996;28;20134;-68
2022/06/03 10:23:37;;;;;;;0.20;0.20;;;23.70;79.50;;;;;;4976955;28;20161;-68
2022/06/03 10:26:04;;;;;;;0.38;0.38;;;23.80;78.70;;;;;;4976917;28;20042;-68
2022/06/03 10:28:41;;;;;;;0.20;0.20;;;24.20;81.20;;;;;;4965733;28;20042;-68
2022/06/03 10:31:13;;;;;;;0.20;0.20;;;23.90;78.20;;;;;;4978600;28;20054;-68
2022/06/03 10:33:39;;;;;;;0.10;0.10;;;23.80;75.80;;;;;;4996260;28;20060;-69
2022/06/03 10:36:05;;;;;;;0.20;0.20;;;23.60;78.10;;;;;;4979000;28;20046;-69
2022/06/03 10:38:36;;;;;;;0.40;0.40;;;23.70;77.00;;;;;;4972057;28;20383;-69
2022/06/03 10:41:11;;;;;;;0.47;0.30;;;23.90;77.60;;;;;;4975999;28;20050;-69
2022/06/03 10:43:40;;;;;;;0.30;0.30;;;24.00;77.90;;;;;;4959664;28;20047;-69
2022/06/03 10:46:18;;;;;;;0.63;0.57;;;23.90;76.00;;;;;;4977072;28;20396;-68
2022/06/03 10:48:45;;;;;;;0.20;0.20;;;24.20;76.60;;;;;;4966194;28;20050;-68
2022/06/03 11:02:36;;;;;;;1.08;0.63;;;23.20;77.60;;;;;;4995894;28;20129;-68
2022/06/03 11:05:25;;;;;;;0.40;0.40;;;23.40;78.10;;;;;;4978362;28;20061;-70
2022/06/03 11:07:57;;;;;;;0.20;0.20;;;23.30;77.10;;;;;;4994761;28;20038;-69
2022/06/03 11:10:28;;;;;;;0.20;0.20;;;23.40;77.80;;;;;;4975801;28;20050;-69
2022/06/03 11:13:02;;;;;;;0.10;0.10;;;23.60;76.80;;;;;;4976204;28;20055;-69
2022/06/03 11:15:37;;;;;;;0.20;0.20;;;23.70;76.60;;;;;;4959377;28;20057;-69
2022/06/03 11:18:18;;;;;;;0.47;0.47;;;23.50;76.20;;;;;;4977172;28;20065;-69
2022/06/03 11:20:50;;;;;;;0.98;0.40;;;23.60;76.80;;;;;;4978583;28;20062;-69
2022/06/03 11:23:16;;;;;;;1.70;0.73;;;23.70;77.30;;;;;;4978694;28;20050;-69
2022/06/03 11:25:49;;;;;;;0.20;0.20;;;23.90;77.70;;;;;;4978384;28;20050;-69
2022/06/03 11:28:20;;;;;;;;;;;23.40;75.30;;;;;;4992502;28;20046;-69
2022/06/03 11:30:51;;;;;;;0.20;0.20;;;23.60;76.40;;;;;;4959131;28;19925;-69
2022/06/03 11:33:19;;;;;;;2.47;1.27;;;23.40;74.10;;;;;;4958716;28;20051;-69
2022/06/03 11:35:50;;;;;;;0.47;0.45;;;23.10;74.70;;;;;;4976255;28;20039;-69
2022/06/03 11:38:31;;;;;;;0.73;0.40;;;22.70;75.50;;;;;;4978544;28;20050;-69
2022/06/03 11:41:01;;;;;;;0.52;0.43;;;22.80;77.20;;;;;;4977917;28;20112;-69
2022/06/03 11:44:12;;;;;;;0.32;0.30;;;22.90;76.90;;;;;;4995290;28;20058;-69
2022/06/03 11:46:48;;;;;;;0.20;0.20;;;23.00;77.30;;;;;;4935084;29;20130;-69
2022/06/03 11:49:18;;;;;;;0.30;0.30;;;23.10;75.60;;;;;;4980280;28;20142;-70
2022/06/03 11:51:46;;;;;;;0.20;0.20;;;23.20;76.50;;;;;;4959157;28;20082;-71
2022/06/03 11:54:15;;;;;;;0.30;0.30;;;23.20;77.70;;;;;;4945657;28;20057;-71
2022/06/03 11:56:43;;;;;;;0.30;0.30;;;23.10;76.60;;;;;;4979670;28;20038;-71
2022/06/03 11:59:32;;;;;;;0.30;0.30;;;23.30;77.60;;;;;;4971491;28;20133;-71
2022/06/03 12:02:08;;;;;;;0.28;0.28;;;23.50;77.00;;;;;;4982010;28;20122;-71
2022/06/03 12:05:06;;;;;;;0.52;0.40;;;23.40;75.70;;;;;;4998831;28;20074;-71
2022/06/03 12:07:43;;;;;;;0.20;0.20;;;23.40;76.80;;;;;;4981839;28;20050;-71
2022/06/03 12:10:26;;;;;;;0.20;0.20;;;23.20;80.30;;;;;;4981210;28;20054;-71
2022/06/03 12:13:19;;;;;;;0.90;0.40;;;23.10;80.30;;;;;;4979204;28;20072;-71
2022/06/03 12:15:54;;;;;;;0.22;0.22;;;23.10;78.30;;;;;;4961840;28;20050;-71
2022/06/03 12:18:32;;;;;;;0.47;0.47;;;23.30;78.20;;;;;;4980994;28;20440;-72
2022/06/03 12:21:08;;;;;;;0.25;0.25;;;23.20;77.90;;;;;;4969993;28;20051;-71
2022/06/03 12:23:36;;;;;;;0.15;0.15;;;23.20;78.10;;;;;;4946210;28;20130;-71
2022/06/03 12:26:22;;;;;;;3.42;0.60;;;23.20;79.00;;;;;;4979159;28;20047;-71
2022/06/03 12:28:50;;;;;;;0.35;0.35;;;23.20;77.80;;;;;;4984312;28;20038;-71
2022/06/03 12:31:33;;;;;;;0.10;0.10;;;23.40;81.20;;;;;;4980925;28;20060;-71
2022/06/03 12:34:22;;;;;;;0.85;0.57;;;23.50;76.90;;;;;;4998454;28;20054;-71
2022/06/03 12:36:53;;;;;;;0.10;0.10;;;23.50;77.50;;;;;;4981570;28;20061;-71
2022/06/03 12:39:18;;;;;;;0.22;0.22;;;23.40;77.10;;;;;;4987786;28;20042;-71
2022/06/03 12:41:44;;;;;;;0.30;0.30;;;23.40;76.20;;;;;;4961781;28;20113;-71
2022/06/03 12:44:41;;;;;;;0.55;0.47;;;23.20;76.20;;;;;;4978593;28;20060;-71
2022/06/03 12:47:42;;;;;;;0.22;0.20;;;23.40;78.40;;;;;;4961880;28;20046;-71
2022/06/03 12:50:07;;;;;;;0.30;0.30;;;23.20;77.30;;;;;;4994308;28;20112;-71
2022/06/03 12:52:35;;;;;;;0.20;0.20;;;23.30;77.90;;;;;;4981205;28;20050;-71
2022/06/03 12:55:23;;;;;;;0.55;0.32;;;23.30;76.10;;;;;;4998064;28;20057;-71
2022/06/03 12:58:01;;;;;;;0.20;0.20;;;23.10;76.80;;;;;;4998093;28;20356;-71
2022/06/03 13:00:48;;;;;;;0.17;0.17;;;23.00;77.50;;;;;;4961644;28;20093;-72
2022/06/03 13:03:16;;;;;;;0.20;0.20;;;23.10;77.50;;;;;;4978504;28;20050;-71
2022/06/03 13:05:53;;;;;;;0.40;0.40;;;23.20;77.60;;;;;;4960280;28;20341;-71
2022/06/03 13:08:27;;;;;;;0.20;0.20;;;23.30;76.50;;;;;;4978936;28;20061;-71
2022/06/03 13:11:20;;;;;;;0.30;0.30;;;23.60;75.70;;;;;;4979702;28;20117;-72
2022/06/03 13:13:57;;;;;;;0.30;0.30;;;23.20;75.10;;;;;;4964422;28;20133;-71
2022/06/03 13:16:39;;;;;;;1.10;0.40;;;23.00;76.10;;;;;;4980311;28;20062;-71
2022/06/03 13:19:22;;;;;;;0.30;0.30;;;23.10;77.20;;;;;;4972990;28;20079;-71
2022/06/03 13:22:00;;;;;;;0.63;0.38;;;22.90;76.50;;;;;;4961628;28;20055;-71
2022/06/03 13:24:28;;;;;;;0.20;0.20;;;22.80;75.40;;;;;;4961472;28;20094;-72
2022/06/03 13:27:06;;;;;;;0.20;0.20;;;23.00;77.80;;;;;;4960993;28;20189;-71
2022/06/03 13:29:51;;;;;;;0.10;0.10;;;22.90;77.40;;;;;;4971026;28;20054;-72
2022/06/03 13:32:38;;;;;;;0.20;0.20;;;22.90;75.70;;;;;;4997298;28;20100;-71
2022/06/03 13:35:59;;;;;;;0.40;0.40;;;22.70;76.00;;;;;;4980352;28;20513;-71
2022/06/03 13:38:40;;;;;;;0.10;0.10;;;22.70;74.60;;;;;;4916344;29;20063;-71
2022/06/03 13:44:38;;;;;;;0.38;0.38;;;23.20;75.70;;;;;;4961065;28;20129;-71
2022/06/03 13:47:20;;;;;;;0.20;0.20;;;23.30;75.10;;;;;;4961022;28;20050;-71
2022/06/03 13:49:49;;;;;;;0.20;0.20;;;23.00;75.50;;;;;;4972704;28;20049;-71
2022/06/03 13:52:23;;;;;;;0.32;0.32;;;23.30;74.80;;;;;;4979727;28;20061;-71
2022/06/03 13:54:53;;;;;;;0.10;0.10;;;23.30;76.20;;;;;;4980586;28;20050;-71
2022/06/03 13:57:19;;;;;;;0.22;0.22;;;23.40;74.60;;;;;;4979870;28;20079;-71
2022/06/03 13:59:46;;;;;;;0.10;0.10;;;23.30;73.10;;;;;;4984509;28;20395;-70
2022/06/03 14:02:17;;;;;;;0.20;0.20;;;23.10;73.90;;;;;;4960311;28;20467;-71
2022/06/03 14:04:54;;;;;;;0.20;0.20;;;22.90;73.50;;;;;;4977313;28;20058;-72
2022/06/03 14:07:28;;;;;;;1.40;1.00;;;22.90;73.70;;;;;;4960048;28;20065;-70
2022/06/03 14:10:00;;;;;;;0.22;0.22;;;22.90;74.10;;;;;;4972584;28;20088;-70
2022/06/03 14:12:40;;;;;;;0.28;0.28;;;22.90;74.10;;;;;;4979873;28;20147;-70
2022/06/03 14:15:22;;;;;;;0.50;0.50;;;23.00;75.20;;;;;;4979523;28;20137;-69
2022/06/03 14:17:58;;;;;;;0.30;0.20;;;23.00;77.60;;;;;;4978940;28;20507;-71
2022/06/03 14:20:26;;;;;;;0.10;0.10;;;23.20;79.20;;;;;;4979915;28;20055;-70
2022/06/03 14:23:01;;;;;;;0.20;0.20;;;23.10;80.00;;;;;;4959887;28;20471;-69
2022/06/03 14:25:36;;;;;;;0.10;0.10;;;23.40;79.80;;;;;;4959749;28;20458;-69
2022/06/03 14:28:24;;;;;;;0.20;0.20;;;23.30;79.40;;;;;;4976552;28;20046;-71
2022/06/03 14:30:59;;;;;;;0.38;0.30;;;23.10;79.60;;;;;;4977971;28;20081;-69
2022/06/03 14:33:27;;;;;;;0.17;0.17;;;22.90;81.10;;;;;;4979480;28;20362;-69